Time;durP1;ratioP1;P1;durP2;ratioP2;P2;SDS_P1;SDS_P2;PMS_P1;PMS_P2;Temp;Humidity;BMP_temperature;BMP_pressure;BME280_temperature;BME280_humidity;BME280_pressure;Samples;Min_cycle;Max_cycle;Signal;HPM_P1;HPM_P2
2023/06/10 00:01:51;;;;;;;6.73;4.27;;;;;;;18.18;56.23;100918.34;5018196;28;20235;-69
2023/06/10 00:04:18;;;;;;;6.00;3.50;;;;;;;18.11;56.58;100925.25;5023646;28;20525;-68
2023/06/10 00:06:44;;;;;;;4.27;3.40;;;;;;;18.05;56.90;100929.38;5021514;28;20245;-68
2023/06/10 00:09:11;;;;;;;5.30;3.53;;;;;;;18.00;57.04;100931.63;5027427;28;20235;-68
2023/06/10 00:11:38;;;;;;;5.23;3.83;;;;;;;17.95;57.48;100937.44;5023423;28;20208;-66
2023/06/10 00:14:07;;;;;;;5.57;3.60;;;;;;;17.91;57.58;100930.63;5021683;28;20203;-68
2023/06/10 00:16:33;;;;;;;5.13;4.23;;;;;;;17.87;57.59;100934.59;5019005;28;20450;-67
2023/06/10 00:19:01;;;;;;;6.20;3.60;;;;;;;17.84;57.73;100926.75;5016533;28;20602;-66
2023/06/10 00:21:27;;;;;;;5.00;3.80;;;;;;;17.81;57.81;100927.03;5018086;28;20633;-67
2023/06/10 00:23:55;;;;;;;4.93;3.60;;;;;;;17.76;57.52;100926.59;5016044;28;20215;-68
2023/06/10 00:26:22;;;;;;;4.83;4.00;;;;;;;17.64;57.21;100925.84;5017256;28;20209;-68
2023/06/10 00:28:48;;;;;;;3.93;3.50;;;;;;;17.56;57.74;100930.16;5016377;28;20223;-69
2023/06/10 00:31:16;;;;;;;5.13;3.70;;;;;;;17.50;58.27;100922.63;5019090;28;20470;-68
2023/06/10 00:33:43;;;;;;;5.77;3.60;;;;;;;17.46;58.68;100926.56;5014325;28;20889;-69
2023/06/10 00:36:10;;;;;;;5.60;4.07;;;;;;;17.42;58.92;100919.75;5019024;28;20204;-68
2023/06/10 00:38:36;;;;;;;4.80;3.17;;;;;;;17.38;58.59;100926.41;5016642;28;20701;-69
2023/06/10 00:41:03;;;;;;;4.90;3.17;;;;;;;17.32;58.67;100925.94;5020125;28;20252;-69
2023/06/10 00:43:29;;;;;;;5.07;3.30;;;;;;;17.28;58.58;100937.97;5016369;28;20209;-70
2023/06/10 00:45:56;;;;;;;4.43;3.40;;;;;;;17.21;58.37;100941.31;5017580;28;20210;-66
2023/06/10 00:48:24;;;;;;;6.17;3.80;;;;;;;17.14;58.51;100938.31;5015584;28;20687;-69
2023/06/10 00:50:51;;;;;;;7.97;3.80;;;;;;;17.08;58.76;100937.97;5019799;28;20202;-68
2023/06/10 00:53:18;;;;;;;5.13;3.60;;;;;;;17.04;59.02;100936.53;5015556;28;20690;-69
2023/06/10 00:55:45;;;;;;;3.80;3.33;;;;;;;17.00;59.13;100931.44;5014312;28;20211;-68
2023/06/10 00:58:12;;;;;;;5.43;2.93;;;;;;;16.96;59.29;100929.13;5013434;28;20737;-68
2023/06/10 01:00:38;;;;;;;7.27;3.20;;;;;;;16.92;59.48;100936.59;5025129;28;20671;-69
2023/06/10 01:03:07;;;;;;;9.53;4.10;;;;;;;16.90;59.44;100932.34;5018438;28;20211;-68
2023/06/10 01:05:36;;;;;;;5.77;3.67;;;;;;;16.88;59.59;100937.84;5012748;28;20247;-68
2023/06/10 01:08:07;;;;;;;7.23;3.50;;;;;;;16.83;59.64;100934.72;5013861;28;20213;-69
2023/06/10 01:10:36;;;;;;;6.50;3.83;;;;;;;16.80;59.92;100926.91;5014509;28;20224;-68
2023/06/10 01:13:06;;;;;;;4.83;3.20;;;;;;;16.77;60.16;100942.44;5014523;28;20216;-69
2023/06/10 01:15:34;;;;;;;4.97;3.27;;;;;;;16.74;60.42;100937.31;5017637;28;20294;-69
2023/06/10 01:18:02;;;;;;;5.30;3.20;;;;;;;16.70;60.71;100941.22;5018074;28;20215;-70
2023/06/10 01:20:29;;;;;;;5.33;3.47;;;;;;;16.64;61.30;100945.31;5017177;28;20677;-70
2023/06/10 01:22:58;;;;;;;4.63;3.73;;;;;;;16.58;61.82;100949.31;5011922;28;20236;-71
2023/06/10 01:25:27;;;;;;;6.20;4.10;;;;;;;16.53;62.45;100948.00;5012401;28;20665;-70
2023/06/10 01:27:55;;;;;;;5.07;4.07;;;;;;;16.48;62.92;100943.00;5011943;28;20770;-70
2023/06/10 01:30:29;;;;;;;4.10;3.50;;;;;;;16.40;63.39;100937.41;5016032;28;20229;-69
2023/06/10 01:32:59;;;;;;;7.03;4.37;;;;;;;16.35;63.67;100944.16;5012311;28;20204;-69
2023/06/10 01:35:27;;;;;;;5.07;3.47;;;;;;;16.29;64.30;100950.91;5012120;28;20602;-69
2023/06/10 01:37:56;;;;;;;6.73;3.73;;;;;;;16.22;64.93;100947.00;5011992;28;20205;-69
2023/06/10 01:40:25;;;;;;;5.33;3.50;;;;;;;16.15;65.80;100952.00;5017034;28;20227;-69
2023/06/10 01:42:52;;;;;;;4.93;3.53;;;;;;;16.12;66.52;100951.44;5018192;28;20224;-71
2023/06/10 01:45:18;;;;;;;4.47;3.40;;;;;;;16.08;66.90;100949.97;5013124;28;20503;-69
2023/06/10 01:47:45;;;;;;;5.57;4.00;;;;;;;16.07;67.43;100956.31;5011911;28;20216;-68
2023/06/10 01:50:11;;;;;;;6.27;4.20;;;;;;;16.04;67.65;100961.94;5013758;28;20745;-70
2023/06/10 01:52:38;;;;;;;7.20;4.07;;;;;;;16.02;68.04;100961.22;5013585;28;20212;-68
2023/06/10 01:55:08;;;;;;;6.60;3.87;;;;;;;15.98;68.32;100961.44;5016814;28;20669;-68
2023/06/10 01:57:35;;;;;;;6.80;4.07;;;;;;;15.94;68.58;100962.66;5016240;28;20232;-69
2023/06/10 02:00:03;;;;;;;7.73;4.50;;;;;;;15.92;68.60;100971.84;5015495;28;20219;-69
2023/06/10 02:02:29;;;;;;;7.37;4.03;;;;;;;15.87;69.01;100966.00;5018020;28;20219;-69
2023/06/10 02:04:57;;;;;;;6.60;4.07;;;;;;;15.83;68.98;100961.84;5018668;28;20205;-68
2023/06/10 02:07:23;;;;;;;7.33;4.50;;;;;;;15.78;69.16;100966.72;5015538;28;20208;-70
2023/06/10 02:09:49;;;;;;;5.90;3.80;;;;;;;15.73;69.59;100964.41;5019690;28;20220;-68
2023/06/10 02:12:16;;;;;;;5.97;4.47;;;;;;;15.70;69.97;100966.50;5019885;28;20199;-67
2023/06/10 02:14:44;;;;;;;6.13;4.20;;;;;;;15.68;70.15;100969.28;5017201;28;20294;-68
2023/06/10 02:17:12;;;;;;;4.83;3.80;;;;;;;15.65;70.36;100972.22;5009208;28;20436;-70
2023/06/10 02:19:42;;;;;;;4.87;3.60;;;;;;;15.61;70.70;100971.59;5018256;28;20229;-71
2023/06/10 02:22:09;;;;;;;8.37;4.47;;;;;;;15.59;70.80;100960.13;5023692;28;20238;-70
2023/06/10 02:24:36;;;;;;;4.70;4.00;;;;;;;15.55;70.33;100963.16;5018593;28;20653;-69
2023/06/10 02:27:03;;;;;;;5.93;4.17;;;;;;;15.50;70.77;100970.72;5017895;28;20210;-69
2023/06/10 02:29:30;;;;;;;8.17;4.30;;;;;;;15.44;70.65;100976.56;5022462;28;20228;-69
2023/06/10 02:31:58;;;;;;;8.40;4.20;;;;;;;15.38;71.33;100977.06;5014357;28;20477;-67
2023/06/10 02:34:24;;;;;;;4.80;4.20;;;;;;;15.34;71.75;100989.00;5019118;28;20299;-69
2023/06/10 02:36:51;;;;;;;6.37;4.50;;;;;;;15.31;72.29;100991.91;5013686;28;20286;-70
2023/06/10 02:39:17;;;;;;;7.00;4.20;;;;;;;15.27;72.38;100988.59;5018295;28;20219;-71
2023/06/10 02:41:44;;;;;;;6.73;4.47;;;;;;;15.23;72.70;100990.66;5019503;28;20223;-67
2023/06/10 02:44:10;;;;;;;5.13;4.13;;;;;;;15.20;73.00;100990.94;5009722;28;20432;-68
2023/06/10 02:46:37;;;;;;;5.63;3.97;;;;;;;15.16;73.15;100994.81;5011213;28;20285;-69
2023/06/10 02:49:04;;;;;;;5.33;3.87;;;;;;;15.11;73.93;100997.00;5011000;28;20751;-69
2023/06/10 02:51:31;;;;;;;8.93;4.80;;;;;;;15.05;74.25;100996.63;5010829;28;20221;-68
2023/06/10 02:53:57;;;;;;;7.53;4.13;;;;;;;15.01;74.45;101001.34;5013600;28;20257;-68
2023/06/10 02:56:25;;;;;;;6.33;3.83;;;;;;;14.97;74.76;100996.34;5016984;28;20678;-69
2023/06/10 02:58:51;;;;;;;5.87;4.77;;;;;;;14.91;74.70;101003.00;5018009;28;20712;-68
2023/06/10 03:01:18;;;;;;;8.60;4.80;;;;;;;14.84;74.74;100999.09;5015782;28;20226;-69
2023/06/10 03:03:46;;;;;;;5.97;4.67;;;;;;;14.77;74.69;101003.22;5010014;28;20230;-70
2023/06/10 03:06:14;;;;;;;6.70;4.40;;;;;;;14.71;74.87;100995.63;5018036;28;20210;-70
2023/06/10 03:08:41;;;;;;;6.70;5.23;;;;;;;14.63;75.43;100982.81;5014351;28;20733;-67
2023/06/10 03:11:07;;;;;;;5.43;4.40;;;;;;;14.55;75.63;100994.09;5015005;28;20617;-70
2023/06/10 03:13:34;;;;;;;8.50;4.73;;;;;;;14.51;76.19;100997.13;5010456;28;20209;-69
2023/06/10 03:16:01;;;;;;;8.97;5.57;;;;;;;14.46;76.35;101001.97;5014843;28;20215;-69
2023/06/10 03:18:28;;;;;;;7.53;4.67;;;;;;;14.43;76.60;101002.19;5016606;28;20221;-70
2023/06/10 03:20:56;;;;;;;7.93;5.33;;;;;;;14.37;77.03;101006.13;5021105;28;20448;-69
2023/06/10 03:23:24;;;;;;;7.90;5.27;;;;;;;14.32;77.40;101008.31;5014432;28;20285;-67
2023/06/10 03:25:50;;;;;;;9.30;5.30;;;;;;;14.29;78.11;101005.84;5013452;28;20210;-67
2023/06/10 03:28:17;;;;;;;5.97;5.17;;;;;;;14.28;78.08;101008.63;5022409;28;20217;-69
2023/06/10 03:30:43;;;;;;;7.30;4.73;;;;;;;14.27;78.91;101017.66;5018140;28;20229;-68
2023/06/10 03:33:10;;;;;;;5.97;4.93;;;;;;;14.24;78.92;101016.91;5024650;28;20202;-69
2023/06/10 03:35:36;;;;;;;7.73;5.37;;;;;;;14.23;79.47;101014.31;5021304;28;20311;-68
2023/06/10 03:38:03;;;;;;;6.23;5.50;;;;;;;14.19;79.21;101023.53;5018056;28;20683;-69
2023/06/10 03:40:31;;;;;;;6.53;4.67;;;;;;;14.14;79.99;101021.22;5019514;28;20234;-69
2023/06/10 03:42:58;;;;;;;7.63;5.10;;;;;;;14.13;80.09;101026.69;5018468;28;20713;-69
2023/06/10 03:45:25;;;;;;;7.43;5.37;;;;;;;14.09;79.98;101034.09;5014447;28;20398;-69
2023/06/10 03:47:52;;;;;;;6.13;5.27;;;;;;;14.03;79.92;101034.50;5018249;28;20875;-69
2023/06/10 03:50:18;;;;;;;7.83;5.40;;;;;;;13.99;80.50;101034.84;5019958;28;20288;-68
2023/06/10 03:52:45;;;;;;;6.97;5.40;;;;;;;13.95;81.11;101031.53;5011087;28;20428;-69
2023/06/10 03:55:13;;;;;;;8.73;5.50;;;;;;;13.95;81.56;101036.03;5017001;28;20203;-66
2023/06/10 03:57:41;;;;;;;11.50;5.37;;;;;;;13.94;82.00;101024.47;5004692;28;20206;-69
2023/06/10 04:00:11;;;;;;;10.77;6.20;;;;;;;13.94;82.04;101031.66;5016638;28;20229;-67
2023/06/10 04:02:37;;;;;;;8.10;5.70;;;;;;;13.93;82.45;101040.66;5018129;28;20742;-69
2023/06/10 04:05:04;;;;;;;7.73;5.77;;;;;;;13.91;83.05;101035.41;5018508;28;20724;-70
2023/06/10 04:07:32;;;;;;;9.03;5.63;;;;;;;13.89;83.74;101026.63;5017831;28;20242;-69
2023/06/10 04:09:58;;;;;;;9.67;5.73;;;;;;;13.87;84.02;101034.75;5016669;28;20364;-70
2023/06/10 04:12:25;;;;;;;6.73;5.93;;;;;;;13.88;84.36;101040.97;5015524;28;20210;-70
2023/06/10 04:14:53;;;;;;;7.23;5.63;;;;;;;13.88;84.67;101044.50;5018199;28;20229;-68
2023/06/10 04:17:19;;;;;;;7.67;5.20;;;;;;;13.88;85.44;101044.50;5016113;28;20198;-68
2023/06/10 04:19:46;;;;;;;9.20;5.93;;;;;;;13.88;85.30;101040.97;5016916;28;20636;-67
2023/06/10 04:22:12;;;;;;;9.23;6.27;;;;;;;13.86;86.03;101029.50;5017662;28;20356;-68
2023/06/10 04:24:39;;;;;;;10.43;6.30;;;;;;;13.86;86.20;101037.53;5017195;28;20430;-68
2023/06/10 04:27:06;;;;;;;7.47;6.23;;;;;;;13.86;86.47;101038.41;5013355;28;20210;-68
2023/06/10 04:29:32;;;;;;;9.20;5.80;;;;;;;13.86;86.86;101030.38;5012720;28;20229;-68
2023/06/10 04:32:01;;;;;;;9.57;5.80;;;;;;;13.86;87.01;101043.75;5015999;28;20209;-69
2023/06/10 04:34:28;;;;;;;8.90;6.27;;;;;;;13.89;87.08;101042.69;5012144;28;20428;-69
2023/06/10 04:36:54;;;;;;;10.57;5.90;;;;;;;13.90;87.94;101047.94;5018115;28;20206;-70
2023/06/10 04:39:21;;;;;;;7.67;6.00;;;;;;;13.93;88.26;101049.53;5013379;28;20219;-68
2023/06/10 04:41:47;;;;;;;8.70;6.97;;;;;;;13.98;88.26;101043.84;5014678;28;20285;-67
2023/06/10 04:44:14;;;;;;;9.33;7.00;;;;;;;14.00;88.68;101042.75;5016254;28;20206;-68
2023/06/10 04:46:41;;;;;;;10.23;6.73;;;;;;;14.03;88.57;101034.50;5021659;28;20238;-67
2023/06/10 04:49:08;;;;;;;8.73;6.90;;;;;;;14.05;88.57;101029.06;5016646;28;20221;-69
2023/06/10 04:51:35;;;;;;;6.93;6.20;;;;;;;14.06;88.84;101033.44;5014223;28;20202;-68
2023/06/10 04:54:03;;;;;;;10.97;6.60;;;;;;;14.07;88.96;101035.16;5013349;28;20206;-68
2023/06/10 04:56:30;;;;;;;9.60;6.00;;;;;;;14.09;89.28;101038.59;5015062;28;20225;-68
2023/06/10 04:58:56;;;;;;;9.67;6.47;;;;;;;14.10;89.03;101033.13;5008000;28;20258;-68
2023/06/10 05:01:23;;;;;;;8.83;6.63;;;;;;;14.10;89.57;101033.13;5015353;28;20401;-66
2023/06/10 05:03:49;;;;;;;8.90;6.03;;;;;;;14.09;89.87;101034.09;5021266;28;20237;-68
2023/06/10 05:06:17;;;;;;;8.37;6.30;;;;;;;14.08;89.50;101035.03;5022306;28;20206;-67
2023/06/10 05:08:44;;;;;;;10.00;6.60;;;;;;;14.08;89.95;101028.84;5023563;28;20229;-68
2023/06/10 05:11:10;;;;;;;9.20;6.67;;;;;;;14.11;90.34;101028.63;5024778;28;20237;-68
2023/06/10 05:13:36;;;;;;;8.20;7.07;;;;;;;14.12;90.40;101027.66;5023352;28;20261;-67
2023/06/10 05:16:03;;;;;;;8.53;6.50;;;;;;;14.15;90.34;101022.09;5027700;28;20213;-68
2023/06/10 05:18:31;;;;;;;9.43;7.07;;;;;;;14.18;90.25;101033.41;5019618;28;20207;-68
2023/06/10 05:20:57;;;;;;;10.43;6.57;;;;;;;14.21;90.64;101035.88;5022669;28;20206;-70
2023/06/10 05:23:25;;;;;;;10.80;6.63;;;;;;;14.26;91.03;101030.19;5020311;28;20223;-68
2023/06/10 05:25:51;;;;;;;8.63;6.97;;;;;;;14.31;90.70;101032.53;5020038;28;20206;-68
2023/06/10 05:28:18;;;;;;;11.53;7.33;;;;;;;14.35;90.86;101025.97;5016081;28;20194;-68
2023/06/10 05:30:44;;;;;;;9.63;7.20;;;;;;;14.39;90.75;101033.66;5014920;28;20227;-68
2023/06/10 05:33:11;;;;;;;10.70;7.10;;;;;;;14.43;90.64;101024.47;5021030;28;20688;-68
2023/06/10 05:35:37;;;;;;;15.20;8.47;;;;;;;14.48;90.98;101030.38;5020037;28;20244;-67
2023/06/10 05:38:04;;;;;;;17.67;7.60;;;;;;;14.52;90.85;101034.50;5019140;28;20203;-68
2023/06/10 05:40:31;;;;;;;9.53;7.37;;;;;;;14.58;91.38;101038.56;5016413;28;20727;-68
2023/06/10 05:42:58;;;;;;;10.40;6.70;;;;;;;14.63;91.08;101038.25;5021115;28;20244;-68
2023/06/10 05:45:24;;;;;;;10.57;7.37;;;;;;;14.66;90.59;101028.16;5017650;28;20207;-68
2023/06/10 05:47:51;;;;;;;10.73;7.37;;;;;;;14.69;90.47;101032.44;5017082;28;20199;-68
2023/06/10 05:50:18;;;;;;;8.90;7.67;;;;;;;14.71;90.44;101035.81;5014874;28;20265;-68
2023/06/10 05:52:44;;;;;;;12.30;7.27;;;;;;;14.72;90.07;101035.72;5024496;28;20204;-68
2023/06/10 05:55:11;;;;;;;13.53;7.07;;;;;;;14.74;90.43;101039.16;5021111;28;20203;-68
2023/06/10 05:57:39;;;;;;;11.20;7.90;;;;;;;14.78;90.15;101037.94;5018053;28;20223;-69
2023/06/10 06:00:07;;;;;;;10.40;7.33;;;;;;;14.81;90.06;101042.22;5015607;28;20223;-67
2023/06/10 06:02:33;;;;;;;10.63;7.23;;;;;;;14.83;89.81;101037.63;5021415;28;20234;-68
2023/06/10 06:05:00;;;;;;;12.00;8.20;;;;;;;14.85;90.33;101035.69;5019386;28;20214;-68
2023/06/10 06:07:27;;;;;;;8.13;7.33;;;;;;;14.84;90.28;101032.13;5019293;28;20661;-68
2023/06/10 06:09:53;;;;;;;9.83;7.27;;;;;;;14.87;89.78;101036.38;5018466;28;20223;-68
2023/06/10 06:12:20;;;;;;;10.10;7.07;;;;;;;14.91;89.91;101045.94;5017806;28;20207;-68
2023/06/10 06:14:49;;;;;;;11.37;7.90;;;;;;;14.96;90.00;101049.13;5017841;28;20230;-68
2023/06/10 06:17:15;;;;;;;13.67;7.77;;;;;;;15.01;90.18;101035.38;5017019;28;20268;-67
2023/06/10 06:19:42;;;;;;;10.10;7.13;;;;;;;15.02;89.76;101043.31;5012935;28;20639;-68
2023/06/10 06:22:08;;;;;;;9.37;7.30;;;;;;;15.03;89.33;101042.34;5014167;28;20210;-68
2023/06/10 06:24:34;;;;;;;11.33;7.00;;;;;;;15.06;89.35;101038.53;5017804;28;20234;-68
2023/06/10 06:27:01;;;;;;;12.33;7.33;;;;;;;15.10;89.05;101031.97;5010991;28;20208;-68
2023/06/10 06:29:29;;;;;;;9.93;7.00;;;;;;;15.14;89.03;101039.69;5011903;28;20234;-68
2023/06/10 06:31:58;;;;;;;9.87;7.43;;;;;;;15.20;88.95;101033.00;5018612;28;20589;-68
2023/06/10 06:34:25;;;;;;;13.17;7.43;;;;;;;15.25;88.94;101036.16;5020246;28;20215;-70
2023/06/10 06:36:52;;;;;;;8.83;6.77;;;;;;;15.31;88.85;101041.06;5022893;28;20299;-68
2023/06/10 06:39:19;;;;;;;9.20;7.20;;;;;;;15.39;89.15;101038.66;5017974;28;20261;-67
2023/06/10 06:41:46;;;;;;;8.63;6.30;;;;;;;15.47;88.64;101046.09;5020573;28;20249;-67
2023/06/10 06:44:12;;;;;;;14.10;8.20;;;;;;;15.53;88.83;101051.00;5017624;28;20286;-68
2023/06/10 06:46:39;;;;;;;9.70;6.90;;;;;;;15.58;88.13;101051.56;5019726;28;20242;-68
2023/06/10 06:49:08;;;;;;;13.43;7.50;;;;;;;15.63;87.59;101052.03;5017961;28;20228;-68
2023/06/10 06:51:35;;;;;;;10.40;7.20;;;;;;;15.69;87.29;101046.19;5022934;28;20844;-68
2023/06/10 06:54:02;;;;;;;13.40;7.00;;;;;;;15.74;86.97;101052.06;5024260;28;20199;-68
2023/06/10 06:56:29;;;;;;;11.87;7.33;;;;;;;15.76;86.17;101047.44;5019556;28;20216;-68
2023/06/10 06:58:55;;;;;;;8.37;6.97;;;;;;;15.80;86.20;101043.50;5019985;28;20316;-69
2023/06/10 07:01:23;;;;;;;10.50;7.13;;;;;;;15.87;85.65;101049.25;5022629;28;20215;-68
2023/06/10 07:03:49;;;;;;;10.63;7.20;;;;;;;15.91;85.13;101048.91;5022401;28;20237;-68
2023/06/10 07:06:17;;;;;;;12.77;7.37;;;;;;;15.94;84.91;101048.63;5020082;28;20919;-68
2023/06/10 07:08:44;;;;;;;9.43;6.70;;;;;;;16.01;84.38;101050.84;5023016;28;20225;-68
2023/06/10 07:11:11;;;;;;;9.47;7.00;;;;;;;16.10;84.58;101053.66;5020531;28;20207;-67
2023/06/10 07:13:38;;;;;;;9.97;6.63;;;;;;;16.23;84.34;101050.84;5019031;28;20241;-65
2023/06/10 07:16:05;;;;;;;12.20;7.07;;;;;;;16.35;83.54;101051.66;5018966;28;20209;-67
2023/06/10 07:18:32;;;;;;;12.70;7.53;;;;;;;16.55;83.78;101050.91;5017054;28;20219;-67
2023/06/10 07:20:58;;;;;;;10.57;6.87;;;;;;;16.76;83.44;101056.38;5021448;28;20217;-70
2023/06/10 07:23:27;;;;;;;7.23;6.53;;;;;;;16.95;82.56;101048.50;5019573;28;20228;-67
2023/06/10 07:25:53;;;;;;;9.27;6.87;;;;;;;17.20;83.28;101058.03;5020649;28;20278;-69
2023/06/10 07:28:20;;;;;;;12.50;5.87;;;;;;;17.46;81.62;101058.53;5020243;28;20207;-68
2023/06/10 07:30:47;;;;;;;7.30;5.63;;;;;;;17.64;79.47;101048.88;5019494;28;20249;-67
2023/06/10 07:33:14;;;;;;;10.57;6.60;;;;;;;17.84;78.36;101049.84;5021433;28;20195;-68
2023/06/10 07:35:42;;;;;;;9.20;6.10;;;;;;;18.04;76.90;101054.34;5020948;28;20227;-67
2023/06/10 07:38:09;;;;;;;8.43;6.30;;;;;;;18.21;76.05;101050.16;5017831;28;20215;-68
2023/06/10 07:40:37;;;;;;;6.67;5.83;;;;;;;18.40;74.68;101050.22;5019170;28;20409;-68
2023/06/10 07:43:04;;;;;;;9.70;6.60;;;;;;;18.55;72.99;101047.97;5023705;28;20228;-67
2023/06/10 07:45:31;;;;;;;8.83;6.87;;;;;;;18.68;72.61;101057.53;5019958;28;20343;-68
2023/06/10 07:47:58;;;;;;;9.20;5.80;;;;;;;18.83;72.25;101040.94;5018002;28;20217;-67
2023/06/10 07:50:24;;;;;;;9.50;6.40;;;;;;;19.02;70.90;101049.06;5019984;28;20423;-67
2023/06/10 07:52:51;;;;;;;11.73;6.57;;;;;;;19.17;70.21;101046.81;5023955;28;20212;-70
2023/06/10 07:55:18;;;;;;;9.23;6.10;;;;;;;19.33;69.79;101045.22;5021493;28;20217;-68
2023/06/10 07:57:46;;;;;;;9.43;6.50;;;;;;;19.50;68.95;101051.78;5015987;28;20510;-69
2023/06/10 08:00:13;;;;;;;9.30;6.03;;;;;;;19.68;68.29;101047.31;5022872;28;20315;-68
2023/06/10 08:02:41;;;;;;;8.80;6.10;;;;;;;19.84;67.62;101049.41;5019818;28;20246;-68
2023/06/10 08:05:08;;;;;;;10.27;5.80;;;;;;;19.99;66.94;101045.22;5021782;28;20210;-67
2023/06/10 08:07:35;;;;;;;8.27;5.90;;;;;;;20.16;66.70;101042.72;5017797;28;20209;-68
2023/06/10 08:10:02;;;;;;;7.03;6.30;;;;;;;20.31;65.44;101038.53;5014737;28;20229;-70
2023/06/10 08:12:29;;;;;;;10.90;6.20;;;;;;;20.41;64.03;101042.06;5015483;28;20268;-68
2023/06/10 08:14:57;;;;;;;9.90;6.27;;;;;;;20.53;64.68;101043.56;5005920;28;20263;-68
2023/06/10 08:17:24;;;;;;;10.40;6.07;;;;;;;20.64;64.72;101032.50;5018092;28;20204;-67
2023/06/10 08:19:50;;;;;;;9.20;6.25;;;;;;;20.77;64.34;101034.88;5014695;28;21196;-70
2023/06/10 08:22:17;;;;;;;10.02;6.68;;;;;;;20.93;63.57;101031.47;5007853;28;20210;-70
2023/06/10 08:24:43;;;;;;;10.95;6.55;;;;;;;21.00;62.31;101021.69;5017018;28;20221;-68
2023/06/10 08:27:10;;;;;;;8.70;6.80;;;;;;;21.08;61.32;101024.50;5012669;28;20221;-70
2023/06/10 08:29:37;;;;;;;7.72;6.45;;;;;;;21.12;61.35;101029.44;5015542;28;20230;-70
2023/06/10 08:32:05;;;;;;;7.03;6.07;;;;;;;21.22;61.72;101037.50;5012215;28;20209;-69
2023/06/10 08:34:35;;;;;;;8.85;5.80;;;;;;;21.35;62.11;101028.97;5005823;28;20282;-70
2023/06/10 08:37:01;;;;;;;10.77;6.10;;;;;;;21.51;61.98;101030.94;5007806;28;20235;-70
2023/06/10 08:39:31;;;;;;;9.48;6.18;;;;;;;21.66;60.82;101037.50;5010524;28;20876;-69
2023/06/10 08:42:07;;;;;;;9.45;6.10;;;;;;;21.75;59.98;101037.38;5009571;28;20213;-67
2023/06/10 08:44:38;;;;;;;7.93;6.63;;;;;;;21.86;59.98;101043.53;5010023;28;20512;-68
2023/06/10 08:47:11;;;;;;;7.75;5.97;;;;;;;21.94;59.21;101033.59;5007002;28;20238;-68
2023/06/10 08:49:42;;;;;;;8.77;5.78;;;;;;;22.07;59.60;101028.59;5002576;28;20242;-68
2023/06/10 08:52:10;;;;;;;7.82;6.60;;;;;;;22.23;59.41;101033.25;5009141;28;20236;-69
2023/06/10 08:54:39;;;;;;;8.05;6.25;;;;;;;22.35;58.55;101020.25;5010730;28;20220;-68
2023/06/10 08:57:07;;;;;;;12.30;6.13;;;;;;;22.49;58.48;101028.59;5010988;28;20210;-68
2023/06/10 08:59:34;;;;;;;8.60;6.22;;;;;;;22.53;57.53;101034.56;5014819;28;20226;-68
2023/06/10 09:02:02;;;;;;;7.93;6.55;;;;;;;22.57;57.62;101035.09;5005849;28;20638;-68
2023/06/10 09:04:30;;;;;;;8.93;5.60;;;;;;;22.66;57.96;101031.38;5011978;28;20237;-68
2023/06/10 09:06:57;;;;;;;8.07;5.82;;;;;;;22.73;57.19;101032.41;5008882;28;20622;-69
2023/06/10 09:09:23;;;;;;;6.93;5.80;;;;;;;22.80;57.19;101028.88;5005496;28;20233;-68
2023/06/10 09:11:50;;;;;;;8.30;5.85;;;;;;;22.90;57.22;101025.16;5008554;28;20455;-68
2023/06/10 09:14:16;;;;;;;9.98;6.25;;;;;;;22.97;57.30;101021.59;5013589;28;20206;-68
2023/06/10 09:16:43;;;;;;;11.40;6.38;;;;;;;23.02;56.70;101019.22;5005395;28;20661;-68
2023/06/10 09:19:09;;;;;;;8.50;5.78;;;;;;;23.06;56.87;101019.75;5004781;28;20311;-68
2023/06/10 09:21:37;;;;;;;7.75;5.70;;;;;;;23.15;56.98;101018.72;5012088;28;20206;-68
2023/06/10 09:24:06;;;;;;;7.80;5.65;;;;;;;23.23;56.85;101013.28;5010688;28;20295;-68
2023/06/10 09:26:32;;;;;;;8.00;5.68;;;;;;;23.33;57.17;101016.69;5009366;28;20600;-68
2023/06/10 09:29:03;;;;;;;10.18;6.40;;;;;;;23.45;56.88;101019.91;5016618;28;20227;-69
2023/06/10 09:31:30;;;;;;;10.10;6.30;;;;;;;23.52;55.94;101010.91;5016014;28;20206;-68
2023/06/10 09:34:06;;;;;;;6.72;5.47;;;;;;;23.53;55.32;101012.63;5017175;28;20922;-69
2023/06/10 09:36:33;;;;;;;9.40;6.10;;;;;;;23.61;55.34;101019.06;5007406;28;20224;-69
2023/06/10 09:39:01;;;;;;;6.70;5.93;;;;;;;23.66;56.21;101019.38;5006771;28;20228;-68
2023/06/10 09:41:33;;;;;;;6.60;5.60;;;;;;;23.75;56.12;101016.47;5012498;28;20210;-69
2023/06/10 09:43:59;;;;;;;6.38;5.70;;;;;;;23.84;56.50;101014.56;5013442;28;20878;-68
2023/06/10 09:46:32;;;;;;;10.02;6.10;;;;;;;23.92;55.73;101000.13;5007038;28;20896;-69
2023/06/10 09:48:59;;;;;;;9.32;5.80;;;;;;;23.99;56.13;101007.41;5012212;28;20345;-68
2023/06/10 09:51:25;;;;;;;9.20;6.78;;;;;;;24.11;55.59;101010.59;5010643;28;20206;-69
2023/06/10 09:53:52;;;;;;;7.28;5.93;;;;;;;24.22;55.58;101015.63;5013953;28;20202;-69
2023/06/10 09:56:21;;;;;;;10.20;6.75;;;;;;;24.31;55.27;101008.31;5010544;28;20800;-69
2023/06/10 09:58:47;;;;;;;7.78;6.25;;;;;;;24.40;55.24;101010.81;5015362;28;20265;-69
2023/06/10 10:01:16;;;;;;;6.68;5.55;;;;;;;24.55;54.82;101013.63;5013628;28;20198;-69
2023/06/10 10:03:47;;;;;;;10.13;5.95;;;;;;;24.57;53.80;101009.69;5011794;28;20222;-69
2023/06/10 10:06:14;;;;;;;8.65;5.93;;;;;;;24.67;54.36;101008.63;5010572;28;20647;-69
2023/06/10 10:08:40;;;;;;;7.07;5.45;;;;;;;24.75;54.45;101012.13;5017092;28;20938;-69
2023/06/10 10:11:07;;;;;;;9.55;5.90;;;;;;;24.82;53.95;101004.94;5014496;28;20711;-70
2023/06/10 10:13:36;;;;;;;6.50;5.60;;;;;;;24.87;54.28;100997.09;5004757;28;20194;-69
2023/06/10 10:16:07;;;;;;;6.65;5.13;;;;;;;24.97;54.97;101005.03;5012727;28;20260;-69
2023/06/10 10:18:36;;;;;;;7.38;5.70;;;;;;;25.04;54.39;101002.44;5007464;28;20206;-69
2023/06/10 10:21:07;;;;;;;7.53;5.70;;;;;;;25.11;54.97;100997.94;5011281;28;20199;-69
2023/06/10 10:23:41;;;;;;;7.65;5.75;;;;;;;25.17;54.62;100999.94;5013643;28;20239;-69
2023/06/10 10:26:11;;;;;;;7.55;5.68;;;;;;;25.21;54.26;100999.41;5016267;28;20214;-69
2023/06/10 10:28:46;;;;;;;9.88;6.15;;;;;;;25.28;54.68;100999.47;5013704;28;20875;-69
2023/06/10 10:31:19;;;;;;;7.65;5.50;;;;;;;25.36;54.13;100995.84;5018677;28;20209;-70
2023/06/10 10:33:53;;;;;;;7.40;5.57;;;;;;;25.43;54.25;100988.63;5015633;28;20205;-70
2023/06/10 10:36:20;;;;;;;7.85;5.85;;;;;;;25.52;53.23;100992.97;5015540;28;20328;-69
2023/06/10 10:38:49;;;;;;;7.38;5.97;;;;;;;25.59;52.74;100994.78;5013582;28;20226;-69
2023/06/10 10:41:16;;;;;;;7.30;5.20;;;;;;;25.66;52.55;100994.88;5013990;28;20230;-69
2023/06/10 10:43:45;;;;;;;7.75;5.78;;;;;;;25.68;51.77;100998.28;5018806;28;20284;-69
2023/06/10 10:46:14;;;;;;;6.40;5.63;;;;;;;25.74;52.39;100992.09;5017796;28;20342;-69
2023/06/10 10:48:41;;;;;;;9.32;6.15;;;;;;;25.81;51.71;100990.28;5011365;28;20261;-69
2023/06/10 10:51:07;;;;;;;6.75;6.05;;;;;;;25.88;51.79;100980.31;5013900;28;20217;-69
2023/06/10 10:53:34;;;;;;;7.78;5.32;;;;;;;25.97;52.11;100983.81;5008073;28;20606;-69
2023/06/10 10:56:01;;;;;;;8.20;5.78;;;;;;;26.13;52.11;100980.88;5003535;28;20198;-69
2023/06/10 10:58:27;;;;;;;11.60;5.35;;;;;;;26.24;51.18;100984.97;5003112;28;20217;-69
2023/06/10 11:00:55;;;;;;;8.73;5.97;;;;;;;26.32;50.43;100984.06;5009876;28;20704;-69
2023/06/10 11:03:22;;;;;;;7.15;5.50;;;;;;;26.38;50.01;100980.56;5011760;28;20198;-70
2023/06/10 11:05:49;;;;;;;7.13;5.13;;;;;;;26.47;50.51;100983.00;5010448;28;20221;-69
2023/06/10 11:08:27;;;;;;;9.27;5.75;;;;;;;26.52;49.72;100983.25;5006845;28;20213;-69
2023/06/10 11:10:53;;;;;;;7.55;5.60;;;;;;;26.60;50.22;100979.56;5009159;28;20206;-70
2023/06/10 11:13:21;;;;;;;5.97;5.38;;;;;;;26.72;49.51;100982.63;5009393;28;21221;-70
2023/06/10 11:15:49;;;;;;;6.30;5.57;;;;;;;26.81;48.79;100970.53;5008848;28;20201;-69
2023/06/10 11:18:23;;;;;;;6.97;5.82;;;;;;;26.91;49.44;100971.88;5008809;28;20226;-70
2023/06/10 11:20:57;;;;;;;7.07;5.28;;;;;;;27.02;48.49;100956.03;5008938;28;20683;-70
2023/06/10 11:23:41;;;;;;;11.38;5.90;;;;;;;27.13;48.88;100950.88;5011058;28;20229;-70
2023/06/10 11:26:20;;;;;;;6.13;5.53;;;;;;;27.22;48.40;100948.84;5015477;28;20221;-68